createdAt,value
2022-09-29T00:02:05.449Z,11.97
2022-09-29T00:04:32.027Z,14.03
2022-09-29T00:06:58.602Z,15.40
2022-09-29T00:09:25.201Z,11.23
2022-09-29T00:11:54.279Z,15.60
2022-09-29T00:14:20.949Z,13.27
2022-09-29T00:16:47.704Z,13.83
2022-09-29T00:19:14.576Z,15.30
2022-09-29T00:21:41.149Z,13.70
2022-09-29T00:24:07.815Z,14.60
2022-09-29T00:26:34.438Z,13.47
2022-09-29T00:29:01.033Z,15.47
2022-09-29T00:31:29.631Z,14.87
2022-09-29T00:33:56.312Z,17.87
2022-09-29T00:36:23.386Z,14.50
2022-09-29T00:38:51.578Z,15.70
2022-09-29T00:41:19.375Z,14.80
2022-09-29T00:43:45.932Z,14.77
2022-09-29T00:46:13.734Z,19.03
2022-09-29T00:48:41.004Z,17.43
2022-09-29T00:51:07.980Z,16.53
2022-09-29T00:53:34.999Z,17.03
2022-09-29T00:56:07.827Z,15.33
2022-09-29T00:58:34.433Z,17.87
2022-09-29T01:01:01.341Z,18.53
2022-09-29T01:03:32.020Z,17.73
2022-09-29T01:06:01.253Z,15.53
2022-09-29T01:08:37.064Z,18.40
2022-09-29T01:11:04.226Z,19.13
2022-09-29T01:13:31.912Z,16.07
2022-09-29T01:15:58.534Z,17.83
2022-09-29T01:18:25.555Z,16.03
2022-09-29T01:20:56.849Z,18.10
2022-09-29T01:23:41.972Z,21.87
2022-09-29T01:26:14.383Z,20.30
2022-09-29T01:28:40.931Z,19.30
2022-09-29T01:31:07.484Z,17.83
2022-09-29T01:33:43.904Z,18.20
2022-09-29T01:36:13.236Z,19.27
2022-09-29T01:38:54.738Z,19.00
2022-09-29T01:41:33.463Z,21.03
2022-09-29T01:44:09.172Z,17.30
2022-09-29T01:46:42.447Z,18.80
2022-09-29T01:49:09.563Z,16.33
2022-09-29T01:51:41.683Z,15.83
2022-09-29T01:54:13.698Z,17.33
2022-09-29T01:56:43.432Z,18.27
2022-09-29T01:59:18.584Z,18.07
2022-09-29T02:01:47.264Z,17.50
2022-09-29T02:04:19.952Z,17.47
2022-09-29T02:06:49.958Z,18.93
2022-09-29T02:09:22.071Z,17.93
2022-09-29T02:11:50.800Z,20.30
2022-09-29T02:14:20.196Z,17.03
2022-09-29T02:16:55.731Z,16.80
2022-09-29T02:19:27.244Z,17.23
2022-09-29T02:21:54.667Z,18.67
2022-09-29T02:24:22.246Z,22.97
2022-09-29T02:26:49.306Z,18.87
2022-09-29T02:29:16.770Z,24.33
2022-09-29T02:31:44.388Z,19.07
2022-09-29T02:34:13.460Z,21.43
2022-09-29T02:36:46.032Z,22.93
2022-09-29T02:39:24.839Z,23.13
2022-09-29T02:41:57.347Z,18.37
2022-09-29T02:44:29.813Z,20.90
2022-09-29T02:47:15.034Z,19.53
2022-09-29T02:49:50.738Z,21.33
2022-09-29T02:52:26.477Z,22.80
2022-09-29T02:54:53.005Z,19.87
2022-09-29T02:57:19.521Z,23.77
2022-09-29T03:00:08.631Z,25.77
2022-09-29T03:02:35.843Z,19.60
2022-09-29T03:05:03.601Z,25.20
2022-09-29T03:07:30.219Z,20.43
2022-09-29T03:09:56.800Z,22.33
2022-09-29T03:12:23.407Z,20.50
2022-09-29T03:14:49.945Z,21.40
2022-09-29T03:17:16.645Z,20.53
2022-09-29T03:19:43.186Z,19.00
2022-09-29T03:22:09.809Z,21.30
2022-09-29T03:24:36.402Z,24.47
2022-09-29T03:27:03.041Z,21.53
2022-09-29T03:29:29.659Z,23.23
2022-09-29T03:31:56.258Z,23.87
2022-09-29T03:34:22.827Z,23.30
2022-09-29T03:36:49.381Z,23.90
2022-09-29T03:39:15.932Z,24.17
2022-09-29T03:41:42.578Z,23.87
2022-09-29T03:44:09.171Z,24.27
2022-09-29T03:46:35.839Z,24.47
2022-09-29T03:49:02.443Z,23.30
2022-09-29T03:51:29.084Z,25.83
2022-09-29T03:53:55.636Z,21.60
2022-09-29T03:56:22.268Z,23.07
2022-09-29T03:58:50.254Z,22.80
2022-09-29T04:01:17.030Z,25.20
2022-09-29T04:03:43.645Z,23.47
2022-09-29T04:06:10.237Z,23.43
2022-09-29T04:08:37.442Z,23.53
2022-09-29T04:11:04.384Z,26.93
2022-09-29T04:13:31.368Z,23.87
2022-09-29T04:16:01.934Z,25.90
2022-09-29T04:18:28.771Z,24.00
2022-09-29T04:21:00.796Z,25.03
2022-09-29T04:23:29.562Z,28.50
2022-09-29T04:25:56.837Z,25.27
2022-09-29T04:28:23.686Z,22.63
2022-09-29T04:30:50.550Z,22.53
2022-09-29T04:33:17.164Z,24.90
2022-09-29T04:35:43.955Z,23.17
2022-09-29T04:38:10.554Z,22.40
2022-09-29T04:40:37.178Z,19.93
2022-09-29T04:43:04.060Z,21.13
2022-09-29T04:45:31.710Z,21.80
2022-09-29T04:47:58.428Z,22.30
2022-09-29T04:50:25.202Z,20.73
2022-09-29T04:52:51.758Z,24.10
2022-09-29T04:55:18.441Z,24.73
2022-09-29T04:57:45.445Z,23.53
2022-09-29T05:00:12.428Z,21.53
2022-09-29T05:02:39.092Z,21.33
2022-09-29T05:05:09.394Z,21.53
2022-09-29T05:07:36.816Z,21.40
2022-09-29T05:10:04.307Z,21.80
2022-09-29T05:12:30.938Z,23.90
2022-09-29T05:14:57.936Z,24.93
2022-09-29T05:17:24.463Z,21.57
2022-09-29T05:19:51.033Z,21.63
2022-09-29T05:22:24.314Z,24.43
2022-09-29T05:24:51.434Z,22.17
2022-09-29T05:27:18.076Z,20.50
2022-09-29T05:29:45.027Z,20.17
2022-09-29T05:32:11.991Z,20.63
2022-09-29T05:34:38.581Z,20.17
2022-09-29T05:37:05.472Z,22.73
2022-09-29T05:39:34.632Z,20.73
2022-09-29T05:42:02.520Z,21.87
2022-09-29T05:44:29.278Z,20.00
2022-09-29T05:46:55.846Z,22.60
2022-09-29T05:49:23.335Z,18.80
2022-09-29T05:51:49.967Z,19.67
2022-09-29T05:54:16.785Z,20.50
2022-09-29T05:56:45.486Z,21.13
2022-09-29T05:59:12.435Z,21.07
2022-09-29T06:01:40.197Z,21.03
2022-09-29T06:04:06.842Z,21.03
2022-09-29T06:06:33.389Z,17.00
2022-09-29T06:08:59.973Z,19.93
2022-09-29T06:11:27.833Z,21.93
2022-09-29T06:13:55.817Z,18.80
2022-09-29T06:16:24.161Z,18.83
2022-09-29T06:18:50.877Z,19.27
2022-09-29T06:21:18.797Z,20.27
2022-09-29T06:23:45.501Z,18.60
2022-09-29T06:26:13.163Z,17.60
2022-09-29T06:28:40.142Z,16.07
2022-09-29T06:31:08.253Z,14.87
2022-09-29T06:33:35.328Z,15.87
2022-09-29T06:36:21.873Z,19.43
2022-09-29T06:38:48.432Z,17.87
2022-09-29T06:41:15.007Z,17.50
2022-09-29T06:43:41.567Z,17.37
2022-09-29T06:46:08.309Z,15.60
2022-09-29T06:48:34.874Z,17.57
2022-09-29T06:51:09.480Z,17.87
2022-09-29T06:53:38.566Z,20.40
2022-09-29T06:56:07.509Z,18.60
2022-09-29T06:58:34.206Z,16.87
2022-09-29T07:01:01.466Z,19.07
2022-09-29T07:03:28.693Z,19.87
2022-09-29T07:06:18.959Z,19.20
2022-09-29T07:08:41.915Z,18.33
2022-09-29T07:11:09.077Z,15.83
2022-09-29T07:13:36.199Z,17.47
2022-09-29T07:16:10.430Z,19.37
2022-09-29T07:18:37.885Z,17.60
2022-09-29T07:21:05.214Z,19.23
2022-09-29T07:23:32.078Z,16.50
2022-09-29T07:25:59.161Z,19.10
2022-09-29T07:28:25.765Z,13.83
2022-09-29T07:31:09.665Z,11.37
2022-09-29T07:33:39.288Z,8.37
2022-09-29T07:36:06.216Z,10.47
2022-09-29T07:38:33.278Z,7.63
2022-09-29T07:41:00.975Z,8.90
2022-09-29T07:43:27.583Z,6.83
2022-09-29T07:45:54.575Z,8.83
2022-09-29T07:48:21.275Z,9.60
2022-09-29T07:50:48.261Z,8.30
2022-09-29T07:53:15.117Z,7.27
2022-09-29T07:55:41.690Z,6.23
2022-09-29T07:58:09.001Z,9.83
2022-09-29T08:00:35.645Z,7.03
2022-09-29T08:03:02.971Z,6.90
2022-09-29T08:05:33.505Z,6.50
2022-09-29T08:08:01.157Z,9.00
2022-09-29T08:10:29.216Z,6.93
2022-09-29T08:12:56.359Z,7.07
2022-09-29T08:15:23.665Z,7.67
2022-09-29T08:17:52.655Z,5.63
2022-09-29T08:20:19.402Z,8.40
2022-09-29T08:22:46.712Z,6.83
2022-09-29T08:25:13.339Z,6.87
2022-09-29T08:27:51.160Z,8.40
2022-09-29T08:30:20.984Z,6.43
2022-09-29T08:32:51.560Z,7.17
2022-09-29T08:35:18.108Z,4.40
2022-09-29T08:37:44.693Z,5.97
2022-09-29T08:40:11.399Z,4.93
2022-09-29T08:42:56.664Z,5.73
2022-09-29T08:45:30.621Z,5.20
2022-09-29T08:48:22.297Z,4.60
2022-09-29T08:50:52.732Z,4.70
2022-09-29T08:53:28.400Z,4.60
2022-09-29T08:56:03.076Z,5.77
2022-09-29T08:58:30.062Z,5.73
2022-09-29T09:01:09.530Z,6.47
2022-09-29T09:03:45.535Z,4.70
2022-09-29T09:06:15.229Z,6.37
2022-09-29T09:08:51.202Z,4.53
2022-09-29T09:11:17.769Z,5.17
2022-09-29T09:14:08.072Z,5.87
2022-09-29T09:16:43.274Z,7.67
2022-09-29T09:19:25.868Z,3.17
2022-09-29T09:22:01.737Z,4.63
2022-09-29T09:24:46.876Z,4.53
2022-09-29T09:27:16.375Z,5.53
2022-09-29T09:29:43.717Z,4.60
2022-09-29T09:32:12.750Z,3.90
2022-09-29T09:34:45.469Z,5.47
2022-09-29T09:37:17.206Z,6.83
2022-09-29T09:39:49.209Z,4.70
2022-09-29T09:42:18.597Z,4.53
2022-09-29T09:44:49.460Z,4.93
2022-09-29T09:47:18.784Z,5.63
2022-09-29T09:49:47.836Z,4.57
2022-09-29T09:52:22.780Z,5.20
2022-09-29T09:54:54.490Z,4.17
2022-09-29T09:57:33.474Z,3.97
2022-09-29T10:00:06.656Z,4.80
2022-09-29T10:02:43.680Z,4.37
2022-09-29T10:05:12.695Z,4.53
2022-09-29T10:07:39.314Z,3.87
2022-09-29T10:10:13.703Z,2.40
2022-09-29T10:12:40.237Z,3.67
2022-09-29T10:15:27.224Z,4.87
2022-09-29T10:18:00.868Z,3.27
2022-09-29T10:20:45.416Z,2.03
2022-09-29T10:23:18.668Z,4.33
2022-09-29T10:25:54.728Z,2.70
2022-09-29T10:28:22.492Z,2.37
2022-09-29T10:30:49.789Z,2.43
2022-09-29T10:33:18.834Z,2.77
2022-09-29T10:35:47.126Z,2.77
2022-09-29T10:38:18.293Z,1.03
2022-09-29T10:40:58.945Z,2.53
2022-09-29T10:43:27.824Z,2.23
2022-09-29T10:45:58.664Z,2.43
2022-09-29T10:48:26.508Z,2.57
2022-09-29T10:50:55.034Z,1.90
2022-09-29T10:53:24.778Z,1.57
2022-09-29T10:55:53.446Z,1.97
2022-09-29T10:58:53.286Z,4.23
2022-09-29T11:01:24.069Z,3.00
2022-09-29T11:03:53.658Z,3.47
2022-09-29T11:06:29.849Z,1.80
2022-09-29T11:08:57.185Z,1.40
2022-09-29T11:11:26.084Z,3.40
2022-09-29T11:13:53.075Z,1.73
2022-09-29T11:16:25.313Z,3.03
2022-09-29T11:18:54.100Z,3.30
2022-09-29T11:21:21.364Z,4.23
2022-09-29T11:23:55.107Z,2.50
2022-09-29T11:26:24.635Z,2.63
2022-09-29T11:28:54.542Z,3.30
2022-09-29T11:31:24.253Z,3.43
2022-09-29T11:34:09.897Z,2.43
2022-09-29T11:36:48.898Z,3.90
2022-09-29T11:39:29.925Z,2.83
2022-09-29T11:42:02.233Z,3.30
2022-09-29T11:44:31.837Z,2.73
2022-09-29T11:47:17.169Z,3.50
2022-09-29T11:50:22.143Z,4.13
2022-09-29T11:53:00.052Z,2.97
2022-09-29T11:55:38.941Z,11.40
2022-09-29T11:58:18.364Z,2.73
2022-09-29T12:00:51.077Z,2.53
2022-09-29T12:03:29.597Z,1.93
2022-09-29T12:06:16.250Z,1.60
2022-09-29T12:09:01.647Z,3.00
2022-09-29T12:11:50.837Z,3.10
2022-09-29T12:14:52.416Z,2.80
2022-09-29T12:17:20.234Z,1.80
2022-09-29T12:19:51.272Z,3.77
2022-09-29T12:22:19.484Z,2.47
2022-09-29T12:24:48.201Z,3.87
2022-09-29T12:27:20.240Z,3.27
2022-09-29T12:29:50.842Z,3.13
2022-09-29T12:32:23.306Z,2.70
2022-09-29T12:34:58.404Z,2.97
2022-09-29T12:37:43.477Z,3.60
2022-09-29T12:40:16.792Z,3.93
2022-09-29T12:43:01.875Z,2.40
2022-09-29T12:45:35.550Z,2.80
2022-09-29T12:48:12.665Z,3.80
2022-09-29T12:50:42.468Z,4.20
2022-09-29T12:53:11.992Z,3.50
2022-09-29T12:55:38.533Z,4.47
2022-09-29T12:58:09.652Z,2.77
2022-09-29T13:00:37.360Z,2.87
2022-09-29T13:03:06.769Z,2.87
2022-09-29T13:05:33.639Z,2.77
2022-09-29T13:08:19.549Z,6.13
2022-09-29T13:11:06.151Z,3.80
2022-09-29T13:13:44.734Z,2.70
2022-09-29T13:16:15.262Z,3.60
2022-09-29T13:18:49.089Z,4.47
2022-09-29T13:21:33.513Z,3.33
2022-09-29T13:24:03.099Z,2.90
2022-09-29T13:26:48.529Z,4.93
2022-09-29T13:29:20.497Z,4.43
2022-09-29T13:31:47.858Z,3.23
2022-09-29T13:34:20.199Z,3.53
2022-09-29T13:36:47.485Z,4.37
2022-09-29T13:39:20.949Z,3.47
2022-09-29T13:41:47.539Z,3.90
2022-09-29T13:44:16.977Z,4.07
2022-09-29T13:46:43.897Z,4.80
2022-09-29T13:49:13.497Z,3.80
2022-09-29T13:51:42.975Z,5.20
2022-09-29T13:54:24.882Z,4.00
2022-09-29T13:56:58.745Z,3.50
2022-09-29T13:59:25.791Z,4.50
2022-09-29T14:01:52.881Z,4.97
2022-09-29T14:04:38.042Z,4.07
2022-09-29T14:07:05.805Z,4.67
2022-09-29T14:09:38.280Z,3.43
2022-09-29T14:12:09.888Z,3.33
2022-09-29T14:14:43.085Z,3.40
2022-09-29T14:17:11.449Z,4.30
2022-09-29T14:19:47.349Z,3.03
2022-09-29T14:22:32.250Z,3.37
2022-09-29T14:25:07.976Z,2.90
2022-09-29T14:27:37.488Z,2.60
2022-09-29T14:30:09.988Z,3.13
2022-09-29T14:32:42.257Z,1.87
2022-09-29T14:35:14.827Z,4.27
2022-09-29T14:37:41.453Z,3.93
2022-09-29T14:40:27.377Z,2.43
2022-09-29T14:43:04.200Z,2.33
2022-09-29T14:45:54.475Z,3.90
2022-09-29T14:48:44.856Z,3.93
2022-09-29T14:51:49.177Z,2.10
2022-09-29T14:54:21.926Z,1.57
2022-09-29T14:56:49.669Z,3.43
2022-09-29T14:59:27.292Z,3.03
2022-09-29T15:02:13.147Z,1.97
2022-09-29T15:04:40.182Z,2.27
2022-09-29T15:07:11.028Z,2.63
2022-09-29T15:09:39.236Z,1.37
2022-09-29T15:12:16.391Z,1.60
2022-09-29T15:14:43.059Z,1.83
2022-09-29T15:17:12.452Z,2.03
2022-09-29T15:19:57.987Z,1.37
2022-09-29T15:22:27.452Z,2.67
2022-09-29T15:25:10.347Z,2.33
2022-09-29T15:27:38.816Z,1.87
2022-09-29T15:30:05.862Z,1.37
2022-09-29T15:32:32.516Z,2.53
2022-09-29T15:35:03.804Z,4.10
2022-09-29T15:37:45.524Z,2.30
2022-09-29T15:40:15.880Z,2.33
2022-09-29T15:42:42.687Z,2.23
2022-09-29T15:45:15.357Z,1.83
2022-09-29T15:47:41.911Z,1.90
2022-09-29T15:50:22.969Z,3.63
2022-09-29T15:52:50.521Z,2.60
2022-09-29T15:55:19.384Z,3.60
2022-09-29T15:57:46.876Z,2.97
2022-09-29T16:00:22.426Z,4.30
2022-09-29T16:02:52.043Z,4.63
2022-09-29T16:05:20.858Z,2.53
2022-09-29T16:07:49.021Z,3.20
2022-09-29T16:10:17.269Z,2.77
2022-09-29T16:12:48.683Z,3.87
2022-09-29T16:15:35.903Z,3.40
2022-09-29T16:18:06.400Z,1.70
2022-09-29T16:20:34.325Z,2.43
2022-09-29T16:23:08.323Z,2.53
2022-09-29T16:25:35.014Z,2.27
2022-09-29T16:28:04.801Z,4.17
2022-09-29T16:30:32.485Z,2.97
2022-09-29T16:33:03.914Z,3.97
2022-09-29T16:35:40.670Z,3.17
2022-09-29T16:38:15.956Z,3.70
2022-09-29T16:40:42.683Z,3.57
2022-09-29T16:43:23.370Z,3.70
2022-09-29T16:45:55.372Z,6.53
2022-09-29T16:48:22.668Z,4.73
2022-09-29T16:50:49.804Z,3.97
2022-09-29T16:53:42.936Z,4.67
2022-09-29T16:56:10.876Z,3.93
2022-09-29T16:58:37.509Z,3.50
2022-09-29T17:01:06.422Z,3.07
2022-09-29T17:03:32.993Z,4.10
2022-09-29T17:06:00.141Z,3.63
2022-09-29T17:08:28.780Z,4.73
2022-09-29T17:10:57.137Z,4.83
2022-09-29T17:13:24.399Z,2.57
2022-09-29T17:15:51.988Z,3.73
2022-09-29T17:18:19.341Z,6.63
2022-09-29T17:20:45.959Z,5.93
2022-09-29T17:23:12.575Z,5.63
2022-09-29T17:25:40.992Z,8.23
2022-09-29T17:28:18.855Z,9.70
2022-09-29T17:30:46.542Z,9.17
2022-09-29T17:33:15.329Z,7.07
2022-09-29T17:35:52.979Z,8.00
2022-09-29T17:38:22.088Z,7.57
2022-09-29T17:40:51.068Z,8.17
2022-09-29T17:43:18.402Z,7.43
2022-09-29T17:45:45.931Z,6.60
2022-09-29T17:48:12.975Z,5.67
2022-09-29T17:50:42.172Z,6.07
2022-09-29T17:53:11.510Z,5.10
2022-09-29T17:55:38.055Z,5.97
2022-09-29T17:58:05.055Z,4.30
2022-09-29T18:00:33.571Z,3.67
2022-09-29T18:03:00.245Z,7.13
2022-09-29T18:05:28.240Z,9.87
2022-09-29T18:07:56.185Z,7.60
2022-09-29T18:10:49.152Z,4.23
2022-09-29T18:13:15.769Z,5.83
2022-09-29T18:15:43.885Z,3.90
2022-09-29T18:18:11.897Z,5.13
2022-09-29T18:20:40.229Z,6.27
2022-09-29T18:23:09.531Z,6.53
2022-09-29T18:25:36.246Z,7.03
2022-09-29T18:28:03.823Z,6.17
2022-09-29T18:30:31.966Z,6.77
2022-09-29T18:32:59.252Z,9.73
2022-09-29T18:35:30.153Z,11.87
2022-09-29T18:37:58.034Z,11.27
2022-09-29T18:40:25.338Z,7.53
2022-09-29T18:42:53.193Z,8.07
2022-09-29T18:45:23.197Z,16.83
2022-09-29T18:47:50.975Z,14.30
2022-09-29T18:50:24.774Z,15.47
2022-09-29T18:52:51.822Z,17.00
2022-09-29T18:55:20.088Z,14.23
2022-09-29T18:57:47.406Z,14.50
2022-09-29T19:00:14.846Z,16.63
2022-09-29T19:02:42.149Z,16.53
2022-09-29T19:05:18.704Z,21.43
2022-09-29T19:07:45.961Z,21.57
2022-09-29T19:10:15.426Z,20.33
2022-09-29T19:12:45.672Z,20.20
2022-09-29T19:15:13.206Z,20.07
2022-09-29T19:17:40.384Z,18.97
2022-09-29T19:20:07.045Z,17.27
2022-09-29T19:22:38.382Z,15.77
2022-09-29T19:25:06.008Z,15.30
2022-09-29T19:27:32.607Z,15.20
2022-09-29T19:30:03.421Z,16.70
2022-09-29T19:32:30.492Z,12.93
2022-09-29T19:34:57.803Z,12.70
2022-09-29T19:37:24.944Z,12.17
2022-09-29T19:39:52.329Z,12.73
2022-09-29T19:42:18.857Z,11.10
2022-09-29T19:44:45.421Z,11.33
2022-09-29T19:47:12.087Z,9.53
2022-09-29T19:49:38.678Z,9.27
2022-09-29T19:52:05.325Z,12.73
2022-09-29T19:54:33.360Z,11.10
2022-09-29T19:57:01.399Z,10.03
2022-09-29T19:59:29.362Z,8.83
2022-09-29T20:01:56.065Z,10.40
2022-09-29T20:04:28.698Z,12.83
2022-09-29T20:06:56.469Z,11.47
2022-09-29T20:09:23.259Z,12.43
2022-09-29T20:11:49.997Z,8.90
2022-09-29T20:14:17.916Z,10.67
2022-09-29T20:16:45.498Z,8.87
2022-09-29T20:19:15.501Z,7.60
2022-09-29T20:21:46.941Z,8.90
2022-09-29T20:24:14.506Z,7.00
2022-09-29T20:26:42.158Z,9.60
2022-09-29T20:29:08.725Z,10.03
2022-09-29T20:31:38.733Z,10.53
2022-09-29T20:34:06.048Z,8.83
2022-09-29T20:36:32.911Z,10.87
2022-09-29T20:38:59.679Z,11.83
2022-09-29T20:41:26.741Z,7.97
2022-09-29T20:43:55.587Z,10.03
2022-09-29T20:46:26.734Z,8.33
2022-09-29T20:48:55.100Z,13.63
2022-09-29T20:51:22.325Z,9.13
2022-09-29T20:53:56.986Z,9.97
2022-09-29T20:56:31.448Z,11.73
2022-09-29T20:59:01.228Z,12.60
2022-09-29T21:01:31.482Z,11.13
2022-09-29T21:04:05.392Z,10.07
2022-09-29T21:06:33.029Z,12.03
2022-09-29T21:09:00.020Z,9.73
2022-09-29T21:11:26.739Z,8.87
2022-09-29T21:13:56.949Z,10.87
2022-09-29T21:16:23.883Z,9.03
2022-09-29T21:18:52.518Z,11.87
2022-09-29T21:21:19.797Z,11.67
2022-09-29T21:23:46.367Z,9.43
2022-09-29T21:26:14.622Z,8.60
2022-09-29T21:28:42.409Z,9.33
2022-09-29T21:31:11.026Z,9.97
2022-09-29T21:33:38.085Z,10.60
2022-09-29T21:36:05.717Z,11.10
2022-09-29T21:38:34.393Z,10.43
2022-09-29T21:41:04.956Z,8.27
2022-09-29T21:43:32.062Z,10.00
2022-09-29T21:46:05.785Z,9.57
2022-09-29T21:48:35.135Z,8.23
2022-09-29T21:51:12.300Z,8.43
2022-09-29T21:53:39.444Z,10.90
2022-09-29T21:56:09.000Z,9.37
2022-09-29T21:58:35.848Z,8.27
2022-09-29T22:01:04.313Z,11.10
2022-09-29T22:03:34.656Z,10.17
2022-09-29T22:06:02.005Z,9.77
2022-09-29T22:08:28.893Z,8.17
2022-09-29T22:10:56.428Z,11.13
2022-09-29T22:13:26.673Z,9.20
2022-09-29T22:16:06.082Z,7.77
2022-09-29T22:18:41.569Z,9.77
2022-09-29T22:21:12.805Z,9.03
2022-09-29T22:23:39.607Z,8.90
2022-09-29T22:26:09.382Z,7.17
2022-09-29T22:28:38.927Z,8.37
2022-09-29T22:31:09.578Z,6.73
2022-09-29T22:33:40.086Z,9.20
2022-09-29T22:36:06.810Z,7.23
2022-09-29T22:38:34.471Z,9.00
2022-09-29T22:41:01.149Z,8.37
2022-09-29T22:43:27.775Z,7.27
2022-09-29T22:45:54.455Z,9.80
2022-09-29T22:48:24.001Z,7.07
2022-09-29T22:50:53.972Z,10.40
2022-09-29T22:53:20.795Z,8.83
2022-09-29T22:55:48.484Z,8.67
2022-09-29T22:58:15.408Z,10.40
2022-09-29T23:00:42.325Z,7.90
2022-09-29T23:03:12.211Z,7.80
2022-09-29T23:05:41.452Z,6.47
2022-09-29T23:08:08.076Z,9.53
2022-09-29T23:10:36.385Z,6.63
2022-09-29T23:13:05.984Z,8.63
2022-09-29T23:15:32.725Z,6.40
2022-09-29T23:17:59.315Z,7.00
2022-09-29T23:20:25.907Z,7.20
2022-09-29T23:22:52.473Z,7.93
2022-09-29T23:25:19.008Z,8.00
2022-09-29T23:27:45.596Z,9.13
2022-09-29T23:30:12.151Z,7.33
2022-09-29T23:32:38.710Z,6.90
2022-09-29T23:35:05.618Z,6.40
2022-09-29T23:37:52.791Z,6.07
2022-09-29T23:40:19.311Z,7.43
2022-09-29T23:42:45.901Z,6.53
2022-09-29T23:45:12.418Z,7.40
2022-09-29T23:47:39.049Z,8.23
2022-09-29T23:50:05.854Z,8.77
2022-09-29T23:52:32.484Z,7.07
2022-09-29T23:54:59.052Z,6.37
2022-09-29T23:57:25.695Z,8.33
2022-09-29T23:59:52.241Z,7.10
